Time,TemperatureF,DewpointF,PressureIn,WindDirection,WindDirectionDegrees,WindSpeedMPH,WindSpeedGustMPH,Humidity,HourlyPrecipIn,Conditions,Clouds,dailyrainin,SoftwareType,DateUTC
2013-05-27 00:03:00,73.0,15.4,29.67,West,279,0.0,0.0,11,0.00,,,0.00,meteohub,2013-05-27 06:03:00,
2013-05-27 00:08:00,73.0,15.4,29.67,West,279,0.0,0.0,11,0.00,,,0.00,meteohub,2013-05-27 06:08:00,
2013-05-27 00:13:00,72.9,17.2,29.67,West,279,0.0,0.0,12,0.00,,,0.00,meteohub,2013-05-27 06:13:00,
2013-05-27 00:18:00,72.5,18.9,29.67,West,279,0.0,0.0,13,0.00,,,0.00,meteohub,2013-05-27 06:18:00,
2013-05-27 00:23:00,71.6,23.0,29.67,West,279,0.0,0.0,16,0.00,,,0.00,meteohub,2013-05-27 06:23:00,
2013-05-27 00:29:00,70.5,22.1,29.67,West,279,0.0,0.0,16,0.00,,,0.00,meteohub,2013-05-27 06:29:00,
2013-05-27 00:34:00,70.2,20.3,29.67,West,279,0.0,0.0,15,0.00,,,0.00,meteohub,2013-05-27 06:34:00,
2013-05-27 00:39:00,69.8,21.6,29.67,West,279,0.0,0.0,16,0.00,,,0.00,meteohub,2013-05-27 06:39:00,
2013-05-27 00:44:00,69.4,24.1,29.67,West,279,0.0,0.0,18,0.00,,,0.00,meteohub,2013-05-27 06:44:00,
2013-05-27 00:50:00,69.1,25.2,29.67,West,279,0.0,0.0,19,0.00,,,0.00,meteohub,2013-05-27 06:50:00,
2013-05-27 00:55:00,68.5,20.5,29.67,West,279,0.0,0.0,16,0.00,,,0.00,meteohub,2013-05-27 06:55:00,
2013-05-27 01:00:00,68.2,23.0,29.67,West,279,0.0,0.0,18,0.00,,,0.00,meteohub,2013-05-27 07:00:00,
2013-05-27 01:05:00,67.6,21.2,29.67,West,279,0.0,0.0,17,0.00,,,0.00,meteohub,2013-05-27 07:05:00,
2013-05-27 01:10:00,67.5,22.5,29.67,West,279,0.0,0.0,18,0.00,,,0.00,meteohub,2013-05-27 07:10:00,
2013-05-27 01:16:00,67.3,23.5,29.67,West,279,0.0,0.0,19,0.00,,,0.00,meteohub,2013-05-27 07:16:00,
2013-05-27 01:21:00,66.9,23.4,29.67,West,279,0.0,0.0,19,0.00,,,0.00,meteohub,2013-05-27 07:21:00,
2013-05-27 01:26:00,66.9,24.6,29.67,West,279,0.0,0.0,20,0.00,,,0.00,meteohub,2013-05-27 07:26:00,
2013-05-27 01:31:00,66.7,20.5,29.67,West,279,0.0,0.0,17,0.00,,,0.00,meteohub,2013-05-27 07:31:00,
2013-05-27 01:37:00,67.3,24.8,29.67,West,279,0.0,0.0,20,0.00,,,0.00,meteohub,2013-05-27 07:37:00,
2013-05-27 01:42:00,67.3,24.8,29.67,West,279,0.0,0.0,20,0.00,,,0.00,meteohub,2013-05-27 07:42:00,
2013-05-27 01:47:00,67.3,24.8,29.67,West,279,0.0,0.0,20,0.00,,,0.00,meteohub,2013-05-27 07:47:00,
2013-05-27 01:52:00,66.9,23.4,29.67,West,279,0.0,0.0,19,0.00,,,0.00,meteohub,2013-05-27 07:52:00,
2013-05-27 01:57:00,66.7,23.2,29.67,West,279,0.0,0.0,19,0.00,,,0.00,meteohub,2013-05-27 07:57:00,
2013-05-27 02:02:00,66.6,23.0,29.67,West,279,0.0,0.0,19,0.00,,,0.00,meteohub,2013-05-27 08:02:00,
2013-05-27 02:07:00,66.2,23.9,29.67,West,279,0.0,0.0,20,0.00,,,0.00,meteohub,2013-05-27 08:07:00,
2013-05-27 02:12:00,65.8,23.7,29.67,West,279,0.0,0.0,20,0.00,,,0.00,meteohub,2013-05-27 08:12:00,
2013-05-27 02:17:00,65.5,23.4,29.67,West,279,0.0,0.0,20,0.00,,,0.00,meteohub,2013-05-27 08:17:00,
2013-05-27 02:23:00,65.1,24.3,29.67,West,279,0.0,0.0,21,0.00,,,0.00,meteohub,2013-05-27 08:23:00,
2013-05-27 02:28:00,64.8,22.8,29.67,West,279,0.0,0.0,20,0.00,,,0.00,meteohub,2013-05-27 08:28:00,
2013-05-27 02:33:00,64.8,22.8,29.67,West,279,0.0,0.0,20,0.00,,,0.00,meteohub,2013-05-27 08:33:00,
2013-05-27 02:38:00,64.8,21.6,29.67,West,279,0.0,0.0,19,0.00,,,0.00,meteohub,2013-05-27 08:38:00,
2013-05-27 02:43:00,64.9,21.7,29.67,West,279,0.0,0.0,19,0.00,,,0.00,meteohub,2013-05-27 08:43:00,
2013-05-27 02:49:00,65.1,23.0,29.67,West,279,0.0,0.0,20,0.00,,,0.00,meteohub,2013-05-27 08:49:00,
2013-05-27 02:54:00,64.9,24.1,29.67,West,279,0.0,0.0,21,0.00,,,0.00,meteohub,2013-05-27 08:54:00,
2013-05-27 02:59:00,64.8,25.0,29.67,West,279,0.0,0.0,22,0.00,,,0.00,meteohub,2013-05-27 08:59:00,
2013-05-27 03:04:00,64.6,25.9,29.67,West,279,0.0,0.0,23,0.00,,,0.00,meteohub,2013-05-27 09:04:00,
2013-05-27 03:10:00,64.2,24.6,29.67,West,279,0.0,0.0,22,0.00,,,0.00,meteohub,2013-05-27 09:10:00,
2013-05-27 03:15:00,64.0,25.5,29.67,West,279,0.0,0.0,23,0.00,,,0.00,meteohub,2013-05-27 09:15:00,
2013-05-27 03:20:00,63.9,21.9,29.67,West,279,0.0,0.0,20,0.00,,,0.00,meteohub,2013-05-27 09:20:00,
2013-05-27 03:25:00,63.5,23.9,29.67,West,279,0.0,0.0,22,0.00,,,0.00,meteohub,2013-05-27 09:25:00,
2013-05-27 03:30:00,63.1,25.7,29.67,West,279,0.0,0.0,24,0.00,,,0.00,meteohub,2013-05-27 09:30:00,
2013-05-27 03:36:00,63.1,24.8,29.67,West,279,0.0,0.0,23,0.00,,,0.00,meteohub,2013-05-27 09:36:00,
2013-05-27 03:41:00,63.0,25.5,29.67,West,279,0.0,0.0,24,0.00,,,0.00,meteohub,2013-05-27 09:41:00,
2013-05-27 03:46:00,62.8,25.5,29.67,West,279,0.0,0.0,24,0.00,,,0.00,meteohub,2013-05-27 09:46:00,
2013-05-27 03:51:00,63.0,27.5,29.66,West,279,0.0,0.0,26,0.00,,,0.00,meteohub,2013-05-27 09:51:00,
2013-05-27 03:57:00,63.0,25.5,29.67,West,279,0.0,0.0,24,0.00,,,0.00,meteohub,2013-05-27 09:57:00,
2013-05-27 04:02:00,63.0,25.5,29.67,West,279,0.0,0.0,24,0.00,,,0.00,meteohub,2013-05-27 10:02:00,
2013-05-27 04:07:00,63.0,22.5,29.66,West,279,0.0,0.0,21,0.00,,,0.00,meteohub,2013-05-27 10:07:00,
2013-05-27 04:12:00,63.0,22.5,29.67,West,279,0.0,0.0,21,0.00,,,0.00,meteohub,2013-05-27 10:12:00,
2013-05-27 04:17:00,63.0,21.2,29.67,West,279,0.0,0.0,20,0.00,,,0.00,meteohub,2013-05-27 10:17:00,
2013-05-27 04:22:00,62.8,22.3,29.67,West,279,0.0,0.0,21,0.00,,,0.00,meteohub,2013-05-27 10:22:00,
2013-05-27 04:27:00,62.6,21.0,29.67,West,279,0.0,0.0,20,0.00,,,0.00,meteohub,2013-05-27 10:27:00,
2013-05-27 04:32:00,62.4,19.6,29.67,West,279,0.0,0.0,19,0.00,,,0.00,meteohub,2013-05-27 10:32:00,
2013-05-27 04:37:00,62.4,20.8,29.67,West,279,0.0,0.0,20,0.00,,,0.00,meteohub,2013-05-27 10:37:00,
2013-05-27 04:42:00,62.1,22.8,29.67,West,279,0.0,0.0,22,0.00,,,0.00,meteohub,2013-05-27 10:42:00,
2013-05-27 04:47:00,61.7,23.5,29.67,West,279,0.0,0.0,23,0.00,,,0.00,meteohub,2013-05-27 10:47:00,
2013-05-27 04:53:00,61.3,23.2,29.67,West,279,0.0,0.0,23,0.00,,,0.00,meteohub,2013-05-27 10:53:00,
2013-05-27 04:58:00,61.2,24.1,29.67,West,279,0.0,0.0,24,0.00,,,0.00,meteohub,2013-05-27 10:58:00,
2013-05-27 05:03:00,61.0,22.8,29.67,West,279,0.0,0.0,23,0.00,,,0.00,meteohub,2013-05-27 11:03:00,
2013-05-27 05:08:00,60.8,23.7,29.67,West,279,0.0,0.0,24,0.00,,,0.00,meteohub,2013-05-27 11:08:00,
2013-05-27 05:14:00,60.4,24.4,29.67,West,279,0.0,0.0,25,0.00,,,0.00,meteohub,2013-05-27 11:14:00,
2013-05-27 05:19:00,60.3,24.3,29.67,West,279,0.0,0.0,25,0.00,,,0.00,meteohub,2013-05-27 11:19:00,
2013-05-27 05:24:00,60.1,25.2,29.67,West,279,0.0,0.0,26,0.00,,,0.00,meteohub,2013-05-27 11:24:00,
2013-05-27 05:29:00,59.7,26.6,29.68,West,279,0.0,0.0,28,0.00,,,0.00,meteohub,2013-05-27 11:29:00,
2013-05-27 05:35:00,59.4,27.1,29.68,West,279,0.0,0.0,29,0.00,,,0.00,meteohub,2013-05-27 11:35:00,
2013-05-27 05:40:00,58.8,27.5,29.68,West,279,0.0,0.0,30,0.00,,,0.00,meteohub,2013-05-27 11:40:00,
2013-05-27 05:45:00,58.5,27.9,29.67,West,279,0.0,0.0,31,0.00,,,0.00,meteohub,2013-05-27 11:45:00,
2013-05-27 05:50:00,57.9,28.2,29.68,West,279,0.0,0.0,32,0.00,,,0.00,meteohub,2013-05-27 11:50:00,
2013-05-27 05:56:00,57.7,27.3,29.68,West,279,0.0,0.0,31,0.00,,,0.00,meteohub,2013-05-27 11:56:00,
2013-05-27 06:01:00,57.7,26.4,29.68,West,279,0.0,0.0,30,0.00,,,0.00,meteohub,2013-05-27 12:01:00,
2013-05-27 06:06:00,57.9,25.0,29.68,West,279,0.0,0.0,28,0.00,,,0.00,meteohub,2013-05-27 12:06:00,
2013-05-27 06:11:00,58.5,21.7,29.69,West,279,0.0,0.0,24,0.00,,,0.00,meteohub,2013-05-27 12:11:00,
2013-05-27 06:16:00,59.0,21.2,29.69,West,279,0.0,0.0,23,0.00,,,0.00,meteohub,2013-05-27 12:16:00,
2013-05-27 06:22:00,59.4,21.6,29.69,West,279,0.0,0.0,23,0.00,,,0.00,meteohub,2013-05-27 12:22:00,
2013-05-27 06:27:00,59.5,21.7,29.68,West,279,0.0,0.0,23,0.00,,,0.00,meteohub,2013-05-27 12:27:00,
2013-05-27 06:32:00,60.1,22.1,29.69,West,279,0.0,0.0,23,0.00,,,0.00,meteohub,2013-05-27 12:32:00,
2013-05-27 06:37:00,60.8,23.7,29.69,West,279,0.0,0.0,24,0.00,,,0.00,meteohub,2013-05-27 12:37:00,
2013-05-27 06:43:00,61.7,23.5,29.69,West,279,0.0,0.0,23,0.00,,,0.00,meteohub,2013-05-27 12:43:00,
2013-05-27 06:48:00,62.2,23.0,29.69,West,279,0.0,0.0,22,0.00,,,0.00,meteohub,2013-05-27 12:48:00,
2013-05-27 06:53:00,62.8,21.0,29.69,West,279,0.0,0.0,20,0.00,,,0.00,meteohub,2013-05-27 12:53:00,
2013-05-27 06:58:00,63.0,21.2,29.70,West,279,0.0,0.0,20,0.00,,,0.00,meteohub,2013-05-27 12:58:00,
2013-05-27 07:04:00,63.1,20.1,29.70,West,277,0.0,0.0,19,0.00,,,0.00,meteohub,2013-05-27 13:04:00,
2013-05-27 07:09:00,63.1,21.4,29.70,West,276,0.0,0.0,20,0.00,,,0.00,meteohub,2013-05-27 13:09:00,
2013-05-27 07:14:00,63.3,19.0,29.70,West,276,0.0,0.0,18,0.00,,,0.00,meteohub,2013-05-27 13:14:00,
2013-05-27 07:19:00,63.5,20.5,29.70,West,276,0.0,0.0,19,0.00,,,0.00,meteohub,2013-05-27 13:19:00,
2013-05-27 07:24:00,64.0,22.1,29.70,West,275,0.0,0.0,20,0.00,,,0.00,meteohub,2013-05-27 13:24:00,
2013-05-27 07:30:00,64.8,21.6,29.70,SE,133,0.0,0.0,19,0.00,,,0.00,meteohub,2013-05-27 13:30:00,
2013-05-27 07:35:00,65.5,22.1,29.70,SE,133,0.0,0.0,19,0.00,,,0.00,meteohub,2013-05-27 13:35:00,
2013-05-27 07:40:00,66.4,21.6,29.70,SE,124,0.0,0.0,18,0.00,,,0.00,meteohub,2013-05-27 13:40:00,
2013-05-27 07:45:00,67.5,19.8,29.70,SE,126,0.0,0.0,16,0.00,,,0.00,meteohub,2013-05-27 13:45:00,
2013-05-27 07:50:00,68.0,20.1,29.70,SE,126,0.0,0.0,16,0.00,,,0.00,meteohub,2013-05-27 13:50:00,
2013-05-27 07:56:00,68.5,20.5,29.70,SE,126,0.0,0.0,16,0.00,,,0.00,meteohub,2013-05-27 13:56:00,
2013-05-27 08:01:00,69.3,21.2,29.70,SE,127,0.0,0.0,16,0.00,,,0.00,meteohub,2013-05-27 14:01:00,
2013-05-27 08:06:00,70.0,21.7,29.70,SE,126,0.0,0.0,16,0.00,,,0.00,meteohub,2013-05-27 14:06:00,
2013-05-27 08:11:00,70.3,22.1,29.70,SE,127,0.0,0.0,16,0.00,,,0.00,meteohub,2013-05-27 14:11:00,
2013-05-27 08:17:00,70.5,22.1,29.70,SE,128,0.0,0.0,16,0.00,,,0.00,meteohub,2013-05-27 14:17:00,
2013-05-27 08:22:00,70.7,22.3,29.70,SE,127,0.0,0.0,16,0.00,,,0.00,meteohub,2013-05-27 14:22:00,
2013-05-27 08:27:00,70.9,25.3,29.70,SE,127,0.0,0.0,18,0.00,,,0.00,meteohub,2013-05-27 14:27:00,
2013-05-27 08:32:00,70.9,25.3,29.71,SE,127,0.0,0.0,18,0.00,,,0.00,meteohub,2013-05-27 14:32:00,
2013-05-27 08:37:00,71.2,21.2,29.70,SE,130,0.0,0.0,15,0.00,,,0.00,meteohub,2013-05-27 14:37:00,
2013-05-27 08:43:00,71.8,23.2,29.70,ESE,107,0.0,0.0,16,0.00,,,0.00,meteohub,2013-05-27 14:43:00,
2013-05-27 08:48:00,72.1,25.0,29.70,ESE,108,0.0,0.0,17,0.00,,,0.00,meteohub,2013-05-27 14:48:00,
2013-05-27 08:53:00,72.9,20.8,29.70,ESE,107,0.0,0.0,14,0.00,,,0.00,meteohub,2013-05-27 14:53:00,
2013-05-27 08:58:00,73.8,23.2,29.70,ESE,107,0.0,0.0,15,0.00,,,0.00,meteohub,2013-05-27 14:58:00,
2013-05-27 09:04:00,74.7,22.3,29.70,ESE,107,0.0,0.0,14,0.00,,,0.00,meteohub,2013-05-27 15:04:00,
2013-05-27 09:09:00,75.9,19.6,29.70,ESE,108,0.0,0.0,12,0.00,,,0.00,meteohub,2013-05-27 15:09:00,
2013-05-27 09:14:00,77.0,20.5,29.70,ESE,108,0.0,0.0,12,0.00,,,0.00,meteohub,2013-05-27 15:14:00,
2013-05-27 09:19:00,78.3,21.6,29.70,ESE,108,0.0,0.0,12,0.00,,,0.00,meteohub,2013-05-27 15:19:00,
2013-05-27 09:24:00,79.0,22.1,29.70,ESE,108,0.0,0.0,12,0.00,,,0.00,meteohub,2013-05-27 15:24:00,
2013-05-27 09:30:00,79.9,24.6,29.70,ESE,108,0.0,0.0,13,0.00,,,0.00,meteohub,2013-05-27 15:30:00,
2013-05-27 09:35:00,80.8,23.4,29.70,ESE,108,0.0,0.0,12,0.00,,,0.00,meteohub,2013-05-27 15:35:00,
2013-05-27 09:40:00,81.1,23.7,29.70,SSE,168,0.0,0.0,12,0.00,,,0.00,meteohub,2013-05-27 15:40:00,
2013-05-27 09:45:00,81.1,25.7,29.70,SSE,168,0.0,0.0,13,0.00,,,0.00,meteohub,2013-05-27 15:45:00,
2013-05-27 09:51:00,81.9,24.3,29.70,SSE,168,0.0,0.0,12,0.00,,,0.00,meteohub,2013-05-27 15:51:00,
2013-05-27 09:56:00,82.8,27.0,29.69,South,178,0.0,0.0,13,0.00,,,0.00,meteohub,2013-05-27 15:56:00,
2013-05-27 10:01:00,83.5,27.5,29.69,South,178,0.0,0.0,13,0.00,,,0.00,meteohub,2013-05-27 16:01:00,
2013-05-27 10:06:00,84.0,27.9,29.69,South,178,0.0,0.0,13,0.00,,,0.00,meteohub,2013-05-27 16:06:00,
2013-05-27 10:12:00,84.6,26.4,29.69,South,178,0.0,0.0,12,0.00,,,0.00,meteohub,2013-05-27 16:12:00,
2013-05-27 10:17:00,84.6,26.4,29.69,SW,234,0.0,0.0,12,0.00,,,0.00,meteohub,2013-05-27 16:17:00,
2013-05-27 10:22:00,84.9,30.4,29.69,SW,234,0.0,0.0,14,0.00,,,0.00,meteohub,2013-05-27 16:22:00,
2013-05-27 10:27:00,85.3,27.0,29.69,SW,229,0.0,0.0,12,0.00,,,0.00,meteohub,2013-05-27 16:27:00,
2013-05-27 10:32:00,85.6,22.8,29.68,SW,229,0.0,0.0,10,0.00,,,0.00,meteohub,2013-05-27 16:32:00,
2013-05-27 10:38:00,86.4,23.4,29.68,SW,229,0.0,0.0,10,0.00,,,0.00,meteohub,2013-05-27 16:38:00,
2013-05-27 10:43:00,85.6,25.2,29.68,WSW,254,0.0,0.0,11,0.00,,,0.00,meteohub,2013-05-27 16:43:00,
2013-05-27 10:48:00,86.0,20.7,29.68,West,271,0.0,0.0,9,0.00,,,0.00,meteohub,2013-05-27 16:48:00,
2013-05-27 10:53:00,86.4,23.4,29.68,East,101,0.0,0.0,10,0.00,,,0.00,meteohub,2013-05-27 16:53:00,
2013-05-27 10:58:00,87.1,23.9,29.68,ESE,102,0.0,0.0,10,0.00,,,0.00,meteohub,2013-05-27 16:58:00,
2013-05-27 11:04:00,86.2,25.5,29.68,WSW,238,0.0,0.0,11,0.00,,,0.00,meteohub,2013-05-27 17:04:00,
2013-05-27 11:09:00,84.7,22.1,29.68,West,272,0.0,0.0,10,0.00,,,0.00,meteohub,2013-05-27 17:09:00,
2013-05-27 11:14:00,84.6,26.4,29.68,West,271,0.0,0.0,12,0.00,,,0.00,meteohub,2013-05-27 17:14:00,
2013-05-27 11:19:00,84.7,26.4,29.68,West,264,0.0,0.0,12,0.00,,,0.00,meteohub,2013-05-27 17:19:00,
2013-05-27 11:25:00,84.9,24.6,29.68,South,179,0.0,0.0,11,0.00,,,0.00,meteohub,2013-05-27 17:25:00,
2013-05-27 11:30:00,85.5,25.0,29.68,WSW,258,0.0,0.0,11,0.00,,,0.00,meteohub,2013-05-27 17:30:00,
2013-05-27 11:35:00,85.5,22.6,29.68,WSW,253,0.0,0.0,10,0.00,,,0.00,meteohub,2013-05-27 17:35:00,
2013-05-27 11:40:00,85.1,22.5,29.67,WSW,250,0.0,0.0,10,0.00,,,0.00,meteohub,2013-05-27 17:40:00,
2013-05-27 11:46:00,85.1,24.6,29.67,WSW,253,0.0,0.0,11,0.00,,,0.00,meteohub,2013-05-27 17:46:00,
2013-05-27 11:51:00,85.3,27.0,29.67,West,271,0.0,0.0,12,0.00,,,0.00,meteohub,2013-05-27 17:51:00,
2013-05-27 11:56:00,85.5,22.6,29.67,West,267,0.0,0.0,10,0.00,,,0.00,meteohub,2013-05-27 17:56:00,
2013-05-27 12:01:00,85.3,22.6,29.67,WSW,252,0.0,0.0,10,0.00,,,0.00,meteohub,2013-05-27 18:01:00,
2013-05-27 12:07:00,85.6,22.8,29.67,West,271,0.0,0.0,10,0.00,,,0.00,meteohub,2013-05-27 18:07:00,
2013-05-27 12:12:00,86.0,23.2,29.67,West,266,0.0,0.0,10,0.00,,,0.00,meteohub,2013-05-27 18:12:00,
2013-05-27 12:17:00,85.6,22.8,29.66,West,261,0.0,0.0,10,0.00,,,0.00,meteohub,2013-05-27 18:17:00,
2013-05-27 12:22:00,85.6,22.8,29.66,WSW,257,0.0,0.0,10,0.00,,,0.00,meteohub,2013-05-27 18:22:00,
2013-05-27 12:27:00,86.0,25.3,29.65,West,280,0.0,0.0,11,0.00,,,0.00,meteohub,2013-05-27 18:27:00,
2013-05-27 12:33:00,86.4,23.4,29.65,WSW,249,0.0,0.0,10,0.00,,,0.00,meteohub,2013-05-27 18:33:00,
2013-05-27 12:38:00,86.5,23.5,29.65,West,272,0.0,0.0,10,0.00,,,0.00,meteohub,2013-05-27 18:38:00,
2013-05-27 12:43:00,86.5,23.5,29.65,West,266,0.0,0.0,10,0.00,,,0.00,meteohub,2013-05-27 18:43:00,
2013-05-27 12:48:00,86.7,25.9,29.65,West,277,0.0,0.0,11,0.00,,,0.00,meteohub,2013-05-27 18:48:00,
2013-05-27 12:54:00,87.4,21.7,29.64,SSW,211,0.0,0.0,9,0.00,,,0.00,meteohub,2013-05-27 18:54:00,
2013-05-27 12:59:00,87.6,21.7,29.64,WNW,292,0.0,0.0,9,0.00,,,0.00,meteohub,2013-05-27 18:59:00,
2013-05-27 13:04:00,87.3,21.6,29.64,West,265,0.0,0.0,9,0.00,,,0.00,meteohub,2013-05-27 19:04:00,
2013-05-27 13:09:00,87.3,24.1,29.64,West,279,0.0,0.0,10,0.00,,,0.00,meteohub,2013-05-27 19:09:00,
2013-05-27 13:14:00,88.0,24.6,29.64,West,273,0.0,0.0,10,0.00,,,0.00,meteohub,2013-05-27 19:14:00,
2013-05-27 13:20:00,88.3,19.6,29.63,WSW,254,0.0,0.0,8,0.00,,,0.00,meteohub,2013-05-27 19:20:00,
2013-05-27 13:25:00,88.3,27.1,29.63,West,275,0.0,0.0,11,0.00,,,0.00,meteohub,2013-05-27 19:25:00,
2013-05-27 13:30:00,88.3,19.6,29.63,WSW,242,0.0,0.0,8,0.00,,,0.00,meteohub,2013-05-27 19:30:00,
2013-05-27 13:36:00,88.2,19.4,29.63,West,267,0.0,0.0,8,0.00,,,0.00,meteohub,2013-05-27 19:36:00,
2013-05-27 13:41:00,88.9,19.9,29.62,West,279,0.0,0.0,8,0.00,,,0.00,meteohub,2013-05-27 19:41:00,
2013-05-27 13:46:00,89.4,17.2,29.62,WSW,257,0.0,0.0,7,0.00,,,0.00,meteohub,2013-05-27 19:46:00,
2013-05-27 13:51:00,88.9,19.9,29.62,WNW,284,0.0,0.0,8,0.00,,,0.00,meteohub,2013-05-27 19:51:00,
2013-05-27 13:56:00,89.1,20.1,29.62,SW,235,0.0,0.0,8,0.00,,,0.00,meteohub,2013-05-27 19:56:00,
2013-05-27 14:02:00,88.7,19.9,29.61,West,272,0.0,0.0,8,0.00,,,0.00,meteohub,2013-05-27 20:02:00,
2013-05-27 14:07:00,89.2,20.3,29.61,West,279,0.0,0.0,8,0.00,,,0.00,meteohub,2013-05-27 20:07:00,
2013-05-27 14:12:00,89.2,20.3,29.61,West,268,0.0,0.0,8,0.00,,,0.00,meteohub,2013-05-27 20:12:00,
2013-05-27 14:17:00,89.2,17.1,29.61,WSW,257,0.0,0.0,7,0.00,,,0.00,meteohub,2013-05-27 20:17:00,
2013-05-27 14:22:00,89.4,20.3,29.61,West,264,0.0,0.0,8,0.00,,,0.00,meteohub,2013-05-27 20:22:00,
2013-05-27 14:28:00,89.4,23.2,29.61,West,267,0.0,0.0,9,0.00,,,0.00,meteohub,2013-05-27 20:28:00,
2013-05-27 14:33:00,90.0,23.5,29.60,NW,306,0.0,0.0,9,0.00,,,0.00,meteohub,2013-05-27 20:33:00,
2013-05-27 14:38:00,89.8,17.6,29.60,West,267,0.0,0.0,7,0.00,,,0.00,meteohub,2013-05-27 20:38:00,
2013-05-27 14:43:00,89.4,17.2,29.60,WSW,248,0.0,0.0,7,0.00,,,0.00,meteohub,2013-05-27 20:43:00,
2013-05-27 14:49:00,89.6,17.4,29.60,West,281,0.0,0.0,7,0.00,,,0.00,meteohub,2013-05-27 20:49:00,
2013-05-27 14:54:00,89.8,17.6,29.59,West,271,0.0,0.0,7,0.00,,,0.00,meteohub,2013-05-27 20:54:00,
2013-05-27 14:59:00,90.3,23.9,29.59,West,276,0.0,0.0,9,0.00,,,0.00,meteohub,2013-05-27 20:59:00,
2013-05-27 15:04:00,90.7,21.4,29.59,West,263,0.0,0.0,8,0.00,,,0.00,meteohub,2013-05-27 21:04:00,
2013-05-27 15:10:00,90.5,14.5,29.59,WNW,285,0.0,0.0,6,0.00,,,0.00,meteohub,2013-05-27 21:10:00,
2013-05-27 15:15:00,90.9,18.3,29.59,West,275,0.0,0.0,7,0.00,,,0.00,meteohub,2013-05-27 21:15:00,
2013-05-27 15:20:00,91.0,18.5,29.58,West,261,0.0,0.0,7,0.00,,,0.00,meteohub,2013-05-27 21:20:00,
2013-05-27 15:25:00,90.9,18.3,29.58,WSW,242,0.0,0.0,7,0.00,,,0.00,meteohub,2013-05-27 21:25:00,
2013-05-27 15:30:00,91.2,21.7,29.58,West,271,0.0,0.0,8,0.00,,,0.00,meteohub,2013-05-27 21:30:00,
2013-05-27 15:36:00,91.2,18.5,29.57,WNW,286,0.0,0.0,7,0.00,,,0.00,meteohub,2013-05-27 21:36:00,
2013-05-27 15:41:00,91.4,21.9,29.57,WNW,284,0.0,0.0,8,0.00,,,0.00,meteohub,2013-05-27 21:41:00,
2013-05-27 15:46:00,91.4,15.1,29.57,West,277,0.0,0.0,6,0.00,,,0.00,meteohub,2013-05-27 21:46:00,
2013-05-27 15:51:00,91.2,18.5,29.57,West,277,0.0,0.0,7,0.00,,,0.00,meteohub,2013-05-27 21:51:00,
2013-05-27 15:57:00,91.8,19.0,29.57,WSW,255,0.0,0.0,7,0.00,,,0.00,meteohub,2013-05-27 21:57:00,
2013-05-27 16:02:00,91.8,15.4,29.57,West,277,0.0,0.0,6,0.00,,,0.00,meteohub,2013-05-27 22:02:00,
2013-05-27 16:07:00,91.8,19.0,29.56,West,265,0.0,0.0,7,0.00,,,0.00,meteohub,2013-05-27 22:07:00,
2013-05-27 16:12:00,92.3,15.8,29.55,West,271,0.0,0.0,6,0.00,,,0.00,meteohub,2013-05-27 22:12:00,
2013-05-27 16:17:00,92.1,15.6,29.55,West,275,0.0,0.0,6,0.00,,,0.00,meteohub,2013-05-27 22:17:00,
2013-05-27 16:23:00,91.8,15.4,29.55,WSW,254,0.0,0.0,6,0.00,,,0.00,meteohub,2013-05-27 22:23:00,
2013-05-27 16:28:00,91.8,19.0,29.55,West,270,0.0,0.0,7,0.00,,,0.00,meteohub,2013-05-27 22:28:00,
2013-05-27 16:33:00,91.9,11.5,29.55,WSW,240,0.0,0.0,5,0.00,,,0.00,meteohub,2013-05-27 22:33:00,
2013-05-27 16:38:00,91.9,11.5,29.55,West,265,0.0,0.0,5,0.00,,,0.00,meteohub,2013-05-27 22:38:00,
2013-05-27 16:43:00,92.1,11.5,29.55,West,260,0.0,0.0,5,0.00,,,0.00,meteohub,2013-05-27 22:43:00,
2013-05-27 16:49:00,91.9,11.5,29.55,West,265,0.0,0.0,5,0.00,,,0.00,meteohub,2013-05-27 22:49:00,
2013-05-27 16:54:00,92.5,16.0,29.54,West,269,0.0,0.0,6,0.00,,,0.00,meteohub,2013-05-27 22:54:00,
2013-05-27 16:59:00,92.8,16.2,29.54,West,259,0.0,0.0,6,0.00,,,0.00,meteohub,2013-05-27 22:59:00,
2013-05-27 17:04:00,92.5,16.0,29.53,WSW,251,0.0,0.0,6,0.00,,,0.00,meteohub,2013-05-27 23:04:00,
2013-05-27 17:10:00,92.5,16.0,29.53,West,266,0.0,0.0,6,0.00,,,0.00,meteohub,2013-05-27 23:10:00,
2013-05-27 17:15:00,91.8,11.3,29.54,West,273,0.0,0.0,5,0.00,,,0.00,meteohub,2013-05-27 23:15:00,
2013-05-27 17:20:00,91.9,11.5,29.53,WSW,253,0.0,0.0,5,0.00,,,0.00,meteohub,2013-05-27 23:20:00,
2013-05-27 17:25:00,91.6,11.1,29.53,West,271,0.0,0.0,5,0.00,,,0.00,meteohub,2013-05-27 23:25:00,
2013-05-27 17:30:00,91.2,10.9,29.53,WNW,286,0.0,0.0,5,0.00,,,0.00,meteohub,2013-05-27 23:30:00,
2013-05-27 17:36:00,90.9,10.6,29.53,WNW,296,0.0,0.0,5,0.00,,,0.00,meteohub,2013-05-27 23:36:00,
2013-05-27 17:41:00,91.0,10.8,29.53,West,279,0.0,0.0,5,0.00,,,0.00,meteohub,2013-05-27 23:41:00,
2013-05-27 17:46:00,90.9,10.6,29.53,WSW,247,0.0,0.0,5,0.00,,,0.00,meteohub,2013-05-27 23:46:00,
2013-05-27 17:51:00,90.3,5.4,29.53,WNW,283,0.0,0.0,4,0.00,,,0.00,meteohub,2013-05-27 23:51:00,
2013-05-27 17:57:00,90.1,10.2,29.53,WSW,253,0.0,0.0,5,0.00,,,0.00,meteohub,2013-05-27 23:57:00,
2013-05-27 18:02:00,90.3,10.2,29.53,West,272,0.0,0.0,5,0.00,,,0.00,meteohub,2013-05-28 00:02:00,
2013-05-27 18:07:00,90.3,10.2,29.53,West,261,0.0,0.0,5,0.00,,,0.00,meteohub,2013-05-28 00:07:00,
2013-05-27 18:12:00,90.1,10.2,29.53,West,267,0.0,0.0,5,0.00,,,0.00,meteohub,2013-05-28 00:12:00,
2013-05-27 18:17:00,90.7,14.7,29.53,West,271,0.0,0.0,6,0.00,,,0.00,meteohub,2013-05-28 00:17:00,
2013-05-27 18:23:00,90.3,14.4,29.52,WSW,252,0.0,0.0,6,0.00,,,0.00,meteohub,2013-05-28 00:23:00,
2013-05-27 18:28:00,90.3,14.4,29.52,West,265,0.0,0.0,6,0.00,,,0.00,meteohub,2013-05-28 00:28:00,
2013-05-27 18:33:00,90.1,14.2,29.52,West,268,0.0,0.0,6,0.00,,,0.00,meteohub,2013-05-28 00:33:00,
2013-05-27 18:38:00,90.0,14.2,29.52,West,268,0.0,0.0,6,0.00,,,0.00,meteohub,2013-05-28 00:38:00,
2013-05-27 18:44:00,90.0,14.2,29.52,SW,224,0.0,0.0,6,0.00,,,0.00,meteohub,2013-05-28 00:44:00,
2013-05-27 18:49:00,90.1,14.2,29.52,West,267,0.0,0.0,6,0.00,,,0.00,meteohub,2013-05-28 00:49:00,
2013-05-27 18:54:00,90.3,14.4,29.52,West,273,0.0,0.0,6,0.00,,,0.00,meteohub,2013-05-28 00:54:00,
2013-05-27 18:59:00,90.3,14.4,29.52,WSW,250,0.0,0.0,6,0.00,,,0.00,meteohub,2013-05-28 00:59:00,
2013-05-27 19:05:00,90.1,17.8,29.52,West,273,0.0,0.0,7,0.00,,,0.00,meteohub,2013-05-28 01:05:00,
2013-05-27 19:10:00,90.1,14.2,29.52,West,267,0.0,0.0,6,0.00,,,0.00,meteohub,2013-05-28 01:10:00,
2013-05-27 19:15:00,90.1,14.2,29.52,WSW,254,0.0,0.0,6,0.00,,,0.00,meteohub,2013-05-28 01:15:00,
2013-05-27 19:20:00,90.1,17.8,29.52,SW,218,0.0,0.0,7,0.00,,,0.00,meteohub,2013-05-28 01:20:00,
2013-05-27 19:25:00,90.1,17.8,29.52,West,269,0.0,0.0,7,0.00,,,0.00,meteohub,2013-05-28 01:25:00,
2013-05-27 19:31:00,90.0,20.8,29.52,West,272,0.0,0.0,8,0.00,,,0.00,meteohub,2013-05-28 01:31:00,
2013-05-27 19:36:00,89.6,20.5,29.52,West,264,0.0,0.0,8,0.00,,,0.00,meteohub,2013-05-28 01:36:00,
2013-05-27 19:41:00,89.1,22.8,29.52,West,262,0.0,0.0,9,0.00,,,0.00,meteohub,2013-05-28 01:41:00,
2013-05-27 19:46:00,88.9,19.9,29.52,West,279,0.0,0.0,8,0.00,,,0.00,meteohub,2013-05-28 01:46:00,
2013-05-27 19:52:00,88.7,19.9,29.52,West,265,0.0,0.0,8,0.00,,,0.00,meteohub,2013-05-28 01:52:00,
2013-05-27 19:57:00,88.3,19.6,29.52,West,269,0.0,0.0,8,0.00,,,0.00,meteohub,2013-05-28 01:57:00,
2013-05-27 20:02:00,88.0,19.4,29.52,West,281,0.0,0.0,8,0.00,,,0.00,meteohub,2013-05-28 02:02:00,
2013-05-27 20:07:00,87.6,19.0,29.52,West,277,0.0,0.0,8,0.00,,,0.00,meteohub,2013-05-28 02:07:00,
2013-05-27 20:12:00,87.3,18.9,29.52,West,273,0.0,0.0,8,0.00,,,0.00,meteohub,2013-05-28 02:12:00,
2013-05-27 20:17:00,86.9,18.5,29.52,West,273,0.0,0.0,8,0.00,,,0.00,meteohub,2013-05-28 02:17:00,
2013-05-27 20:22:00,86.4,18.1,29.52,West,273,0.0,0.0,8,0.00,,,0.00,meteohub,2013-05-28 02:22:00,
2013-05-27 20:27:00,85.8,17.8,29.52,West,273,0.0,0.0,8,0.00,,,0.00,meteohub,2013-05-28 02:27:00,
2013-05-27 20:32:00,85.6,20.3,29.52,West,273,0.0,0.0,9,0.00,,,0.00,meteohub,2013-05-28 02:32:00,
2013-05-27 20:37:00,85.3,17.2,29.52,West,273,0.0,0.0,8,0.00,,,0.00,meteohub,2013-05-28 02:37:00,
2013-05-27 20:42:00,84.9,19.8,29.52,West,273,0.0,0.0,9,0.00,,,0.00,meteohub,2013-05-28 02:42:00,
2013-05-27 20:47:00,84.6,19.6,29.52,West,273,0.0,0.0,9,0.00,,,0.00,meteohub,2013-05-28 02:47:00,
2013-05-27 20:52:00,84.2,19.2,29.52,West,273,0.0,0.0,9,0.00,,,0.00,meteohub,2013-05-28 02:52:00,
2013-05-27 20:57:00,83.8,19.0,29.53,West,273,0.0,0.0,9,0.00,,,0.00,meteohub,2013-05-28 02:57:00,
2013-05-27 21:02:00,83.7,16.2,29.53,West,273,0.0,0.0,8,0.00,,,0.00,meteohub,2013-05-28 03:02:00,
2013-05-27 21:07:00,83.3,18.5,29.53,West,273,0.0,0.0,9,0.00,,,0.00,meteohub,2013-05-28 03:07:00,
2013-05-27 21:12:00,82.9,18.3,29.53,West,273,0.0,0.0,9,0.00,,,0.00,meteohub,2013-05-28 03:12:00,
2013-05-27 21:17:00,82.2,17.8,29.53,West,273,0.0,0.0,9,0.00,,,0.00,meteohub,2013-05-28 03:17:00,
2013-05-27 21:22:00,81.7,17.4,29.53,West,273,0.0,0.0,9,0.00,,,0.00,meteohub,2013-05-28 03:22:00,
2013-05-27 21:27:00,81.0,16.9,29.53,West,273,0.0,0.0,9,0.00,,,0.00,meteohub,2013-05-28 03:27:00,
2013-05-27 21:32:00,80.2,18.7,29.54,West,273,0.0,0.0,10,0.00,,,0.00,meteohub,2013-05-28 03:32:00,
2013-05-27 21:37:00,79.5,22.5,29.54,West,273,0.0,0.0,12,0.00,,,0.00,meteohub,2013-05-28 03:37:00,
2013-05-27 21:42:00,79.0,22.1,29.54,West,273,0.0,0.0,12,0.00,,,0.00,meteohub,2013-05-28 03:42:00,
2013-05-27 21:47:00,78.4,25.3,29.54,West,273,0.0,0.0,14,0.00,,,0.00,meteohub,2013-05-28 03:47:00,
2013-05-27 21:52:00,77.7,23.0,29.54,West,273,0.0,0.0,13,0.00,,,0.00,meteohub,2013-05-28 03:52:00,
2013-05-27 21:57:00,77.5,22.8,29.54,West,273,0.0,0.0,13,0.00,,,0.00,meteohub,2013-05-28 03:57:00,
2013-05-27 22:01:00,77.4,24.4,29.54,West,273,0.0,0.0,14,0.00,,,0.00,meteohub,2013-05-28 04:01:00,
2013-05-27 22:02:00,77.4,26.1,29.54,West,273,0.0,0.0,15,0.00,,,0.00,meteohub,2013-05-28 04:02:00,
2013-05-27 22:04:00,77.2,27.5,29.54,West,273,0.0,0.0,16,0.00,,,0.00,meteohub,2013-05-28 04:04:00,
2013-05-27 22:09:00,76.8,27.1,29.54,West,273,0.0,0.0,16,0.00,,,0.00,meteohub,2013-05-28 04:09:00,
2013-05-27 22:14:00,76.5,28.4,29.54,West,273,0.0,0.0,17,0.00,,,0.00,meteohub,2013-05-28 04:14:00,
2013-05-27 22:19:00,75.9,28.0,29.54,West,273,0.0,0.0,17,0.00,,,0.00,meteohub,2013-05-28 04:19:00,
2013-05-27 22:25:00,75.6,26.2,29.55,West,273,0.0,0.0,16,0.00,,,0.00,meteohub,2013-05-28 04:25:00,
2013-05-27 22:30:00,75.2,25.9,29.54,West,273,0.0,0.0,16,0.00,,,0.00,meteohub,2013-05-28 04:30:00,
2013-05-27 22:35:00,74.8,24.1,29.55,West,273,0.0,0.0,15,0.00,,,0.00,meteohub,2013-05-28 04:35:00,
2013-05-27 22:40:00,74.5,23.7,29.55,West,273,0.0,0.0,15,0.00,,,0.00,meteohub,2013-05-28 04:40:00,
2013-05-27 22:46:00,74.1,21.9,29.54,West,273,0.0,0.0,14,0.00,,,0.00,meteohub,2013-05-28 04:46:00,
2013-05-27 22:51:00,73.9,21.7,29.55,West,273,0.0,0.0,14,0.00,,,0.00,meteohub,2013-05-28 04:51:00,
2013-05-27 22:56:00,73.8,21.6,29.54,West,273,0.0,0.0,14,0.00,,,0.00,meteohub,2013-05-28 04:56:00,
2013-05-27 23:01:00,73.4,23.0,29.54,West,273,0.0,0.0,15,0.00,,,0.00,meteohub,2013-05-28 05:01:00,
2013-05-27 23:06:00,72.9,20.8,29.54,West,273,0.0,0.0,14,0.00,,,0.00,meteohub,2013-05-28 05:06:00,
2013-05-27 23:12:00,72.9,22.5,29.54,West,273,0.0,0.0,15,0.00,,,0.00,meteohub,2013-05-28 05:12:00,
2013-05-27 23:17:00,72.9,24.1,29.54,West,273,0.0,0.0,16,0.00,,,0.00,meteohub,2013-05-28 05:17:00,
2013-05-27 23:22:00,72.9,24.1,29.54,West,273,0.0,0.0,16,0.00,,,0.00,meteohub,2013-05-28 05:22:00,
2013-05-27 23:27:00,72.7,23.9,29.54,West,273,0.0,0.0,16,0.00,,,0.00,meteohub,2013-05-28 05:27:00,
2013-05-27 23:32:00,72.3,23.5,29.54,West,273,0.0,0.0,16,0.00,,,0.00,meteohub,2013-05-28 05:32:00,
2013-05-27 23:37:00,72.1,25.0,29.53,West,273,0.0,0.0,17,0.00,,,0.00,meteohub,2013-05-28 05:37:00,
2013-05-27 23:42:00,72.0,24.8,29.54,West,273,0.0,0.0,17,0.00,,,0.00,meteohub,2013-05-28 05:42:00,
2013-05-27 23:47:00,71.8,24.6,29.54,West,273,0.0,0.0,17,0.00,,,0.00,meteohub,2013-05-28 05:47:00,
2013-05-27 23:52:00,71.6,24.4,29.54,West,273,0.0,0.0,17,0.00,,,0.00,meteohub,2013-05-28 05:52:00,
2013-05-27 23:57:00,71.2,24.3,29.54,West,273,0.0,0.0,17,0.00,,,0.00,meteohub,2013-05-28 05:57:00,